sensor_id;sensor_type;location;lat;lon;timestamp;P1;durP1;ratioP1;P2;durP2;ratioP2
72569;SDS011;60594;50.204;8.844;2024-01-30T00:01:45;9.93;;;5.47;;
72569;SDS011;60594;50.204;8.844;2024-01-30T00:04:30;9.55;;;5.68;;
72569;SDS011;60594;50.204;8.844;2024-01-30T00:07:14;10.93;;;5.53;;
72569;SDS011;60594;50.204;8.844;2024-01-30T00:09:59;12.20;;;6.00;;
72569;SDS011;60594;50.204;8.844;2024-01-30T00:12:44;10.50;;;5.35;;
72569;SDS011;60594;50.204;8.844;2024-01-30T00:15:29;11.25;;;5.93;;
72569;SDS011;60594;50.204;8.844;2024-01-30T00:18:13;9.88;;;5.38;;
72569;SDS011;60594;50.204;8.844;2024-01-30T00:20:58;9.73;;;5.35;;
72569;SDS011;60594;50.204;8.844;2024-01-30T00:23:43;11.35;;;5.80;;
72569;SDS011;60594;50.204;8.844;2024-01-30T00:26:28;10.20;;;5.18;;
72569;SDS011;60594;50.204;8.844;2024-01-30T00:29:13;9.02;;;5.30;;
72569;SDS011;60594;50.204;8.844;2024-01-30T00:32:04;10.40;;;5.78;;
72569;SDS011;60594;50.204;8.844;2024-01-30T00:34:49;10.23;;;4.97;;
72569;SDS011;60594;50.204;8.844;2024-01-30T00:37:34;9.90;;;5.90;;
72569;SDS011;60594;50.204;8.844;2024-01-30T00:40:19;10.00;;;5.10;;
72569;SDS011;60594;50.204;8.844;2024-01-30T00:43:05;11.52;;;6.30;;
72569;SDS011;60594;50.204;8.844;2024-01-30T00:45:50;9.95;;;5.15;;
72569;SDS011;60594;50.204;8.844;2024-01-30T00:48:36;10.80;;;5.72;;
72569;SDS011;60594;50.204;8.844;2024-01-30T00:51:21;9.60;;;5.28;;
72569;SDS011;60594;50.204;8.844;2024-01-30T00:54:06;8.10;;;5.03;;
72569;SDS011;60594;50.204;8.844;2024-01-30T00:56:50;14.77;;;5.40;;
72569;SDS011;60594;50.204;8.844;2024-01-30T00:59:35;11.32;;;5.68;;
72569;SDS011;60594;50.204;8.844;2024-01-30T01:02:20;11.35;;;6.03;;
72569;SDS011;60594;50.204;8.844;2024-01-30T01:05:05;9.77;;;5.22;;
72569;SDS011;60594;50.204;8.844;2024-01-30T01:07:50;9.77;;;4.97;;
72569;SDS011;60594;50.204;8.844;2024-01-30T01:10:35;8.55;;;5.03;;
72569;SDS011;60594;50.204;8.844;2024-01-30T01:13:20;9.82;;;5.63;;
72569;SDS011;60594;50.204;8.844;2024-01-30T01:16:05;9.60;;;5.68;;
72569;SDS011;60594;50.204;8.844;2024-01-30T01:18:50;12.60;;;6.07;;
72569;SDS011;60594;50.204;8.844;2024-01-30T01:21:35;11.38;;;5.82;;
72569;SDS011;60594;50.204;8.844;2024-01-30T01:24:20;10.18;;;5.53;;
72569;SDS011;60594;50.204;8.844;2024-01-30T01:27:05;10.85;;;5.95;;
72569;SDS011;60594;50.204;8.844;2024-01-30T01:29:51;10.65;;;6.25;;
72569;SDS011;60594;50.204;8.844;2024-01-30T01:32:36;8.68;;;5.53;;
72569;SDS011;60594;50.204;8.844;2024-01-30T01:35:22;9.13;;;5.57;;
72569;SDS011;60594;50.204;8.844;2024-01-30T01:38:12;10.50;;;5.70;;
72569;SDS011;60594;50.204;8.844;2024-01-30T01:40:57;9.45;;;5.07;;
72569;SDS011;60594;50.204;8.844;2024-01-30T01:43:42;10.95;;;5.68;;
72569;SDS011;60594;50.204;8.844;2024-01-30T01:46:27;10.63;;;5.20;;
72569;SDS011;60594;50.204;8.844;2024-01-30T01:49:15;8.77;;;4.72;;
72569;SDS011;60594;50.204;8.844;2024-01-30T01:52:00;9.38;;;5.25;;
72569;SDS011;60594;50.204;8.844;2024-01-30T01:54:45;8.45;;;4.65;;
72569;SDS011;60594;50.204;8.844;2024-01-30T01:57:30;10.48;;;6.00;;
72569;SDS011;60594;50.204;8.844;2024-01-30T02:00:16;9.32;;;4.78;;
72569;SDS011;60594;50.204;8.844;2024-01-30T02:03:03;10.20;;;5.18;;
72569;SDS011;60594;50.204;8.844;2024-01-30T02:05:50;12.43;;;5.53;;
72569;SDS011;60594;50.204;8.844;2024-01-30T02:08:37;10.02;;;5.68;;
72569;SDS011;60594;50.204;8.844;2024-01-30T02:11:22;9.70;;;5.00;;
72569;SDS011;60594;50.204;8.844;2024-01-30T02:14:08;11.38;;;5.32;;
72569;SDS011;60594;50.204;8.844;2024-01-30T02:16:53;8.75;;;4.47;;
72569;SDS011;60594;50.204;8.844;2024-01-30T02:19:38;9.18;;;5.05;;
72569;SDS011;60594;50.204;8.844;2024-01-30T02:22:24;9.95;;;5.38;;
72569;SDS011;60594;50.204;8.844;2024-01-30T02:25:09;13.20;;;5.57;;
72569;SDS011;60594;50.204;8.844;2024-01-30T02:27:54;8.30;;;4.78;;
72569;SDS011;60594;50.204;8.844;2024-01-30T02:30:39;10.75;;;5.20;;
72569;SDS011;60594;50.204;8.844;2024-01-30T02:33:24;7.45;;;4.88;;
72569;SDS011;60594;50.204;8.844;2024-01-30T02:36:09;10.63;;;5.35;;
72569;SDS011;60594;50.204;8.844;2024-01-30T02:38:54;9.13;;;5.60;;
72569;SDS011;60594;50.204;8.844;2024-01-30T02:41:39;11.52;;;6.15;;
72569;SDS011;60594;50.204;8.844;2024-01-30T02:44:24;10.73;;;5.90;;
72569;SDS011;60594;50.204;8.844;2024-01-30T02:47:08;10.38;;;5.47;;
72569;SDS011;60594;50.204;8.844;2024-01-30T02:49:53;10.88;;;5.05;;
72569;SDS011;60594;50.204;8.844;2024-01-30T02:52:38;8.70;;;5.15;;
72569;SDS011;60594;50.204;8.844;2024-01-30T02:55:23;10.98;;;5.85;;
72569;SDS011;60594;50.204;8.844;2024-01-30T02:58:08;9.10;;;5.45;;
72569;SDS011;60594;50.204;8.844;2024-01-30T03:00:53;10.95;;;5.55;;
72569;SDS011;60594;50.204;8.844;2024-01-30T03:03:38;9.73;;;5.53;;
72569;SDS011;60594;50.204;8.844;2024-01-30T03:06:25;10.50;;;5.93;;
72569;SDS011;60594;50.204;8.844;2024-01-30T03:09:10;9.95;;;5.43;;
72569;SDS011;60594;50.204;8.844;2024-01-30T03:11:55;11.77;;;5.95;;
72569;SDS011;60594;50.204;8.844;2024-01-30T03:14:39;10.80;;;5.75;;
72569;SDS011;60594;50.204;8.844;2024-01-30T03:17:24;9.73;;;5.18;;
72569;SDS011;60594;50.204;8.844;2024-01-30T03:20:09;10.32;;;5.30;;
72569;SDS011;60594;50.204;8.844;2024-01-30T03:22:55;11.75;;;6.05;;
72569;SDS011;60594;50.204;8.844;2024-01-30T03:25:40;9.70;;;5.88;;
72569;SDS011;60594;50.204;8.844;2024-01-30T03:28:25;11.52;;;6.30;;
72569;SDS011;60594;50.204;8.844;2024-01-30T03:31:13;11.90;;;6.65;;
72569;SDS011;60594;50.204;8.844;2024-01-30T03:34:00;11.60;;;7.22;;
72569;SDS011;60594;50.204;8.844;2024-01-30T03:36:45;17.17;;;10.00;;
72569;SDS011;60594;50.204;8.844;2024-01-30T03:39:30;16.02;;;10.50;;
72569;SDS011;60594;50.204;8.844;2024-01-30T03:42:15;14.88;;;10.70;;
72569;SDS011;60594;50.204;8.844;2024-01-30T03:45:01;13.57;;;10.07;;
72569;SDS011;60594;50.204;8.844;2024-01-30T03:47:46;17.02;;;9.38;;
72569;SDS011;60594;50.204;8.844;2024-01-30T03:50:31;15.63;;;8.85;;
72569;SDS011;60594;50.204;8.844;2024-01-30T03:53:16;14.43;;;7.80;;
72569;SDS011;60594;50.204;8.844;2024-01-30T03:56:02;13.98;;;7.45;;
72569;SDS011;60594;50.204;8.844;2024-01-30T03:58:47;14.20;;;7.03;;
72569;SDS011;60594;50.204;8.844;2024-01-30T04:01:32;9.23;;;5.85;;
72569;SDS011;60594;50.204;8.844;2024-01-30T04:04:17;9.05;;;5.70;;
72569;SDS011;60594;50.204;8.844;2024-01-30T04:07:03;10.82;;;6.15;;
72569;SDS011;60594;50.204;8.844;2024-01-30T04:09:47;10.48;;;5.55;;
72569;SDS011;60594;50.204;8.844;2024-01-30T04:12:32;10.25;;;5.65;;
72569;SDS011;60594;50.204;8.844;2024-01-30T04:15:17;10.77;;;6.40;;
72569;SDS011;60594;50.204;8.844;2024-01-30T04:18:03;11.07;;;6.05;;
72569;SDS011;60594;50.204;8.844;2024-01-30T04:20:48;10.55;;;5.57;;
72569;SDS011;60594;50.204;8.844;2024-01-30T04:23:33;9.30;;;5.63;;
72569;SDS011;60594;50.204;8.844;2024-01-30T04:26:18;11.10;;;5.95;;
72569;SDS011;60594;50.204;8.844;2024-01-30T04:29:03;9.07;;;5.05;;
72569;SDS011;60594;50.204;8.844;2024-01-30T04:31:47;11.85;;;6.03;;
72569;SDS011;60594;50.204;8.844;2024-01-30T04:34:32;9.55;;;5.47;;
72569;SDS011;60594;50.204;8.844;2024-01-30T04:37:17;9.82;;;5.63;;
72569;SDS011;60594;50.204;8.844;2024-01-30T04:40:02;9.85;;;5.25;;
72569;SDS011;60594;50.204;8.844;2024-01-30T04:42:48;9.68;;;5.93;;
72569;SDS011;60594;50.204;8.844;2024-01-30T04:45:33;10.45;;;4.97;;
72569;SDS011;60594;50.204;8.844;2024-01-30T04:48:18;10.80;;;5.57;;
72569;SDS011;60594;50.204;8.844;2024-01-30T04:51:04;9.98;;;5.40;;
72569;SDS011;60594;50.204;8.844;2024-01-30T04:53:49;10.13;;;5.60;;
72569;SDS011;60594;50.204;8.844;2024-01-30T04:56:34;10.15;;;5.78;;
72569;SDS011;60594;50.204;8.844;2024-01-30T04:59:20;9.10;;;5.30;;
72569;SDS011;60594;50.204;8.844;2024-01-30T05:02:05;10.80;;;5.85;;
72569;SDS011;60594;50.204;8.844;2024-01-30T05:04:50;10.55;;;5.70;;
72569;SDS011;60594;50.204;8.844;2024-01-30T05:07:36;10.98;;;5.88;;
72569;SDS011;60594;50.204;8.844;2024-01-30T05:10:21;9.60;;;5.65;;
72569;SDS011;60594;50.204;8.844;2024-01-30T05:13:06;9.02;;;5.18;;
72569;SDS011;60594;50.204;8.844;2024-01-30T05:15:51;9.77;;;5.43;;
72569;SDS011;60594;50.204;8.844;2024-01-30T05:18:36;11.57;;;5.75;;
72569;SDS011;60594;50.204;8.844;2024-01-30T05:21:21;11.45;;;5.50;;
72569;SDS011;60594;50.204;8.844;2024-01-30T05:24:06;9.27;;;5.25;;
72569;SDS011;60594;50.204;8.844;2024-01-30T05:26:51;9.05;;;5.47;;
72569;SDS011;60594;50.204;8.844;2024-01-30T05:29:36;10.35;;;5.25;;
72569;SDS011;60594;50.204;8.844;2024-01-30T05:32:20;12.25;;;6.05;;
72569;SDS011;60594;50.204;8.844;2024-01-30T05:35:05;11.20;;;5.50;;
72569;SDS011;60594;50.204;8.844;2024-01-30T05:37:52;10.32;;;6.53;;
72569;SDS011;60594;50.204;8.844;2024-01-30T05:40:37;11.88;;;6.72;;
72569;SDS011;60594;50.204;8.844;2024-01-30T05:43:21;10.05;;;6.07;;
72569;SDS011;60594;50.204;8.844;2024-01-30T05:46:06;11.02;;;6.20;;
72569;SDS011;60594;50.204;8.844;2024-01-30T05:48:51;10.18;;;6.07;;
72569;SDS011;60594;50.204;8.844;2024-01-30T05:51:36;8.73;;;5.60;;
72569;SDS011;60594;50.204;8.844;2024-01-30T05:54:21;9.25;;;5.85;;
72569;SDS011;60594;50.204;8.844;2024-01-30T05:57:06;13.57;;;6.47;;
72569;SDS011;60594;50.204;8.844;2024-01-30T05:59:50;12.13;;;5.95;;
72569;SDS011;60594;50.204;8.844;2024-01-30T06:02:36;10.32;;;5.90;;
72569;SDS011;60594;50.204;8.844;2024-01-30T06:05:20;10.90;;;6.18;;
72569;SDS011;60594;50.204;8.844;2024-01-30T06:08:05;11.05;;;6.03;;
72569;SDS011;60594;50.204;8.844;2024-01-30T06:10:51;11.55;;;5.78;;
72569;SDS011;60594;50.204;8.844;2024-01-30T06:13:36;10.55;;;5.78;;
72569;SDS011;60594;50.204;8.844;2024-01-30T06:16:21;11.25;;;6.03;;
72569;SDS011;60594;50.204;8.844;2024-01-30T06:19:07;10.55;;;5.72;;
72569;SDS011;60594;50.204;8.844;2024-01-30T06:21:52;12.65;;;6.22;;
72569;SDS011;60594;50.204;8.844;2024-01-30T06:24:37;8.20;;;5.15;;
72569;SDS011;60594;50.204;8.844;2024-01-30T06:27:22;10.35;;;5.45;;
72569;SDS011;60594;50.204;8.844;2024-01-30T06:30:07;42.00;;;15.57;;
72569;SDS011;60594;50.204;8.844;2024-01-30T06:32:52;40.78;;;15.70;;
72569;SDS011;60594;50.204;8.844;2024-01-30T06:35:37;33.78;;;14.57;;
72569;SDS011;60594;50.204;8.844;2024-01-30T06:38:24;13.70;;;7.72;;
72569;SDS011;60594;50.204;8.844;2024-01-30T06:41:10;10.48;;;6.75;;
72569;SDS011;60594;50.204;8.844;2024-01-30T06:43:55;11.75;;;7.13;;
72569;SDS011;60594;50.204;8.844;2024-01-30T06:46:41;15.10;;;7.25;;
72569;SDS011;60594;50.204;8.844;2024-01-30T06:49:26;13.27;;;8.25;;
72569;SDS011;60594;50.204;8.844;2024-01-30T06:52:11;13.93;;;7.68;;
72569;SDS011;60594;50.204;8.844;2024-01-30T06:54:55;16.60;;;9.43;;
72569;SDS011;60594;50.204;8.844;2024-01-30T06:57:40;13.52;;;7.70;;
72569;SDS011;60594;50.204;8.844;2024-01-30T07:00:25;13.45;;;6.78;;
72569;SDS011;60594;50.204;8.844;2024-01-30T07:03:10;11.70;;;6.43;;
72569;SDS011;60594;50.204;8.844;2024-01-30T07:05:55;11.27;;;6.88;;
72569;SDS011;60594;50.204;8.844;2024-01-30T07:08:40;16.17;;;9.52;;
72569;SDS011;60594;50.204;8.844;2024-01-30T07:11:25;18.67;;;12.10;;
72569;SDS011;60594;50.204;8.844;2024-01-30T07:14:09;14.30;;;7.63;;
72569;SDS011;60594;50.204;8.844;2024-01-30T07:16:55;12.27;;;6.32;;
72569;SDS011;60594;50.204;8.844;2024-01-30T07:19:40;13.00;;;7.20;;
72569;SDS011;60594;50.204;8.844;2024-01-30T07:22:25;16.13;;;9.57;;
72569;SDS011;60594;50.204;8.844;2024-01-30T07:25:09;15.60;;;7.13;;
72569;SDS011;60594;50.204;8.844;2024-01-30T07:27:54;28.35;;;14.43;;
72569;SDS011;60594;50.204;8.844;2024-01-30T07:30:39;15.10;;;8.52;;
72569;SDS011;60594;50.204;8.844;2024-01-30T07:33:24;13.18;;;7.40;;
72569;SDS011;60594;50.204;8.844;2024-01-30T07:36:09;14.38;;;7.93;;
72569;SDS011;60594;50.204;8.844;2024-01-30T07:38:55;14.10;;;7.50;;
72569;SDS011;60594;50.204;8.844;2024-01-30T07:41:40;16.08;;;8.00;;
72569;SDS011;60594;50.204;8.844;2024-01-30T07:44:24;19.17;;;9.27;;
72569;SDS011;60594;50.204;8.844;2024-01-30T07:47:09;20.15;;;11.10;;
72569;SDS011;60594;50.204;8.844;2024-01-30T07:49:54;18.85;;;9.75;;
72569;SDS011;60594;50.204;8.844;2024-01-30T07:52:39;13.90;;;6.97;;
72569;SDS011;60594;50.204;8.844;2024-01-30T07:55:24;14.30;;;7.30;;
72569;SDS011;60594;50.204;8.844;2024-01-30T07:58:12;14.18;;;7.38;;
72569;SDS011;60594;50.204;8.844;2024-01-30T08:00:57;13.57;;;7.20;;
72569;SDS011;60594;50.204;8.844;2024-01-30T08:03:43;11.35;;;6.20;;
72569;SDS011;60594;50.204;8.844;2024-01-30T08:06:27;14.40;;;7.78;;
72569;SDS011;60594;50.204;8.844;2024-01-30T08:09:12;14.82;;;7.78;;
72569;SDS011;60594;50.204;8.844;2024-01-30T08:11:57;13.68;;;5.93;;
72569;SDS011;60594;50.204;8.844;2024-01-30T08:14:42;11.07;;;6.32;;
72569;SDS011;60594;50.204;8.844;2024-01-30T08:17:27;10.98;;;6.15;;
72569;SDS011;60594;50.204;8.844;2024-01-30T08:20:12;18.88;;;7.93;;
72569;SDS011;60594;50.204;8.844;2024-01-30T08:22:58;19.88;;;9.05;;
72569;SDS011;60594;50.204;8.844;2024-01-30T08:25:45;10.68;;;5.88;;
72569;SDS011;60594;50.204;8.844;2024-01-30T08:28:29;12.25;;;6.28;;
72569;SDS011;60594;50.204;8.844;2024-01-30T08:31:14;11.77;;;5.75;;
72569;SDS011;60594;50.204;8.844;2024-01-30T08:33:59;10.98;;;5.60;;
72569;SDS011;60594;50.204;8.844;2024-01-30T08:36:44;13.00;;;6.03;;
72569;SDS011;60594;50.204;8.844;2024-01-30T08:39:29;11.23;;;6.35;;
72569;SDS011;60594;50.204;8.844;2024-01-30T08:42:15;11.93;;;5.95;;
72569;SDS011;60594;50.204;8.844;2024-01-30T08:45:00;12.02;;;6.25;;
72569;SDS011;60594;50.204;8.844;2024-01-30T08:47:45;11.68;;;6.63;;
72569;SDS011;60594;50.204;8.844;2024-01-30T08:50:29;10.68;;;6.15;;
72569;SDS011;60594;50.204;8.844;2024-01-30T08:53:14;11.52;;;6.70;;
72569;SDS011;60594;50.204;8.844;2024-01-30T08:55:59;12.85;;;7.88;;
72569;SDS011;60594;50.204;8.844;2024-01-30T08:58:45;14.80;;;7.85;;
72569;SDS011;60594;50.204;8.844;2024-01-30T09:01:29;13.70;;;7.28;;
72569;SDS011;60594;50.204;8.844;2024-01-30T09:04:15;12.55;;;7.75;;
72569;SDS011;60594;50.204;8.844;2024-01-30T09:07:00;13.27;;;7.95;;
72569;SDS011;60594;50.204;8.844;2024-01-30T09:09:45;12.80;;;7.47;;
72569;SDS011;60594;50.204;8.844;2024-01-30T09:12:30;16.23;;;8.02;;
72569;SDS011;60594;50.204;8.844;2024-01-30T09:15:15;14.38;;;8.32;;
72569;SDS011;60594;50.204;8.844;2024-01-30T09:18:00;17.10;;;8.27;;
72569;SDS011;60594;50.204;8.844;2024-01-30T09:20:45;14.30;;;7.93;;
72569;SDS011;60594;50.204;8.844;2024-01-30T09:23:31;15.27;;;8.77;;
72569;SDS011;60594;50.204;8.844;2024-01-30T09:26:17;13.80;;;8.32;;
72569;SDS011;60594;50.204;8.844;2024-01-30T09:29:02;15.30;;;8.65;;
72569;SDS011;60594;50.204;8.844;2024-01-30T09:31:47;16.40;;;9.10;;
72569;SDS011;60594;50.204;8.844;2024-01-30T09:34:32;15.43;;;9.45;;
72569;SDS011;60594;50.204;8.844;2024-01-30T09:37:17;16.58;;;9.02;;
72569;SDS011;60594;50.204;8.844;2024-01-30T09:40:03;16.58;;;9.55;;
72569;SDS011;60594;50.204;8.844;2024-01-30T09:42:49;17.23;;;9.98;;
72569;SDS011;60594;50.204;8.844;2024-01-30T09:45:35;16.25;;;9.32;;
72569;SDS011;60594;50.204;8.844;2024-01-30T09:48:20;15.20;;;8.18;;
72569;SDS011;60594;50.204;8.844;2024-01-30T09:51:06;14.95;;;8.90;;
72569;SDS011;60594;50.204;8.844;2024-01-30T09:53:53;14.40;;;8.70;;
72569;SDS011;60594;50.204;8.844;2024-01-30T09:56:39;16.48;;;9.23;;
72569;SDS011;60594;50.204;8.844;2024-01-30T09:59:24;15.65;;;9.48;;
72569;SDS011;60594;50.204;8.844;2024-01-30T10:02:09;16.52;;;9.75;;
72569;SDS011;60594;50.204;8.844;2024-01-30T10:04:55;14.80;;;8.98;;
72569;SDS011;60594;50.204;8.844;2024-01-30T10:07:39;15.00;;;9.23;;
72569;SDS011;60594;50.204;8.844;2024-01-30T10:10:35;17.48;;;9.80;;
72569;SDS011;60594;50.204;8.844;2024-01-30T10:13:20;17.08;;;10.30;;
72569;SDS011;60594;50.204;8.844;2024-01-30T10:16:05;18.25;;;9.95;;
72569;SDS011;60594;50.204;8.844;2024-01-30T10:18:51;18.65;;;10.05;;
72569;SDS011;60594;50.204;8.844;2024-01-30T10:21:36;17.02;;;9.85;;
72569;SDS011;60594;50.204;8.844;2024-01-30T10:24:24;15.18;;;9.27;;
72569;SDS011;60594;50.204;8.844;2024-01-30T10:27:10;17.25;;;10.30;;
72569;SDS011;60594;50.204;8.844;2024-01-30T10:29:55;17.27;;;9.80;;
72569;SDS011;60594;50.204;8.844;2024-01-30T10:32:40;14.38;;;9.50;;
72569;SDS011;60594;50.204;8.844;2024-01-30T10:35:25;14.75;;;8.98;;
72569;SDS011;60594;50.204;8.844;2024-01-30T10:38:11;18.58;;;8.75;;
72569;SDS011;60594;50.204;8.844;2024-01-30T10:41:00;20.42;;;10.77;;
72569;SDS011;60594;50.204;8.844;2024-01-30T10:43:47;16.10;;;9.38;;
72569;SDS011;60594;50.204;8.844;2024-01-30T10:46:55;20.15;;;10.52;;
72569;SDS011;60594;50.204;8.844;2024-01-30T10:49:45;16.58;;;9.52;;
72569;SDS011;60594;50.204;8.844;2024-01-30T10:52:31;18.92;;;9.35;;
72569;SDS011;60594;50.204;8.844;2024-01-30T10:55:17;16.75;;;9.43;;
72569;SDS011;60594;50.204;8.844;2024-01-30T10:58:02;16.67;;;9.77;;
72569;SDS011;60594;50.204;8.844;2024-01-30T11:00:49;17.20;;;10.45;;
72569;SDS011;60594;50.204;8.844;2024-01-30T11:03:35;19.30;;;9.68;;
72569;SDS011;60594;50.204;8.844;2024-01-30T11:06:27;15.63;;;9.65;;
72569;SDS011;60594;50.204;8.844;2024-01-30T11:09:12;17.42;;;9.32;;
72569;SDS011;60594;50.204;8.844;2024-01-30T11:11:58;17.88;;;9.77;;
72569;SDS011;60594;50.204;8.844;2024-01-30T11:20:30;16.20;;;9.52;;
72569;SDS011;60594;50.204;8.844;2024-01-30T11:23:22;15.77;;;9.25;;
72569;SDS011;60594;50.204;8.844;2024-01-30T11:26:07;17.48;;;9.35;;
72569;SDS011;60594;50.204;8.844;2024-01-30T11:28:55;16.38;;;9.30;;
72569;SDS011;60594;50.204;8.844;2024-01-30T11:31:40;17.67;;;10.35;;
72569;SDS011;60594;50.204;8.844;2024-01-30T11:34:35;16.85;;;9.70;;
72569;SDS011;60594;50.204;8.844;2024-01-30T11:37:25;19.70;;;9.70;;
72569;SDS011;60594;50.204;8.844;2024-01-30T11:40:11;17.58;;;9.90;;
72569;SDS011;60594;50.204;8.844;2024-01-30T11:42:57;17.45;;;9.55;;
72569;SDS011;60594;50.204;8.844;2024-01-30T11:45:44;16.83;;;9.90;;
72569;SDS011;60594;50.204;8.844;2024-01-30T11:48:29;15.18;;;8.73;;
72569;SDS011;60594;50.204;8.844;2024-01-30T11:51:14;14.75;;;9.80;;
72569;SDS011;60594;50.204;8.844;2024-01-30T11:54:00;16.55;;;9.73;;
72569;SDS011;60594;50.204;8.844;2024-01-30T11:56:45;16.02;;;9.57;;
72569;SDS011;60594;50.204;8.844;2024-01-30T11:59:29;14.88;;;9.27;;
72569;SDS011;60594;50.204;8.844;2024-01-30T12:02:17;17.00;;;9.88;;
72569;SDS011;60594;50.204;8.844;2024-01-30T12:05:06;17.25;;;10.25;;
72569;SDS011;60594;50.204;8.844;2024-01-30T12:07:51;16.88;;;9.63;;
72569;SDS011;60594;50.204;8.844;2024-01-30T12:10:36;15.52;;;9.63;;
72569;SDS011;60594;50.204;8.844;2024-01-30T12:13:22;14.90;;;9.20;;
72569;SDS011;60594;50.204;8.844;2024-01-30T12:16:06;16.65;;;9.20;;
72569;SDS011;60594;50.204;8.844;2024-01-30T12:18:59;13.75;;;9.48;;
72569;SDS011;60594;50.204;8.844;2024-01-30T12:21:45;15.63;;;9.27;;
72569;SDS011;60594;50.204;8.844;2024-01-30T12:24:30;15.63;;;8.88;;
72569;SDS011;60594;50.204;8.844;2024-01-30T12:27:15;16.02;;;9.23;;
72569;SDS011;60594;50.204;8.844;2024-01-30T12:30:00;15.48;;;9.27;;
72569;SDS011;60594;50.204;8.844;2024-01-30T12:32:47;18.35;;;9.75;;
72569;SDS011;60594;50.204;8.844;2024-01-30T12:35:34;16.65;;;10.40;;
72569;SDS011;60594;50.204;8.844;2024-01-30T12:38:19;17.13;;;9.65;;
72569;SDS011;60594;50.204;8.844;2024-01-30T12:41:04;16.70;;;8.98;;
72569;SDS011;60594;50.204;8.844;2024-01-30T12:43:51;16.63;;;9.63;;
72569;SDS011;60594;50.204;8.844;2024-01-30T12:46:36;16.05;;;9.10;;
72569;SDS011;60594;50.204;8.844;2024-01-30T12:49:21;16.30;;;9.43;;
72569;SDS011;60594;50.204;8.844;2024-01-30T12:52:06;15.68;;;9.35;;
72569;SDS011;60594;50.204;8.844;2024-01-30T12:54:51;16.75;;;8.75;;
72569;SDS011;60594;50.204;8.844;2024-01-30T12:57:37;16.50;;;7.82;;
72569;SDS011;60594;50.204;8.844;2024-01-30T13:00:23;17.38;;;8.77;;
72569;SDS011;60594;50.204;8.844;2024-01-30T13:03:09;13.98;;;8.00;;
72569;SDS011;60594;50.204;8.844;2024-01-30T13:05:54;13.88;;;8.07;;
72569;SDS011;60594;50.204;8.844;2024-01-30T13:08:40;13.85;;;7.82;;
72569;SDS011;60594;50.204;8.844;2024-01-30T13:11:25;14.90;;;8.38;;
72569;SDS011;60594;50.204;8.844;2024-01-30T13:14:11;14.45;;;8.43;;
72569;SDS011;60594;50.204;8.844;2024-01-30T13:16:56;14.57;;;7.95;;
72569;SDS011;60594;50.204;8.844;2024-01-30T13:19:41;16.25;;;8.98;;
72569;SDS011;60594;50.204;8.844;2024-01-30T13:22:25;11.93;;;7.80;;
72569;SDS011;60594;50.204;8.844;2024-01-30T13:25:11;13.10;;;7.88;;
72569;SDS011;60594;50.204;8.844;2024-01-30T13:27:55;14.23;;;8.18;;
72569;SDS011;60594;50.204;8.844;2024-01-30T13:30:41;15.43;;;8.02;;
72569;SDS011;60594;50.204;8.844;2024-01-30T13:33:26;15.63;;;8.20;;
72569;SDS011;60594;50.204;8.844;2024-01-30T13:36:11;14.45;;;7.50;;
72569;SDS011;60594;50.204;8.844;2024-01-30T13:38:56;13.95;;;8.05;;
72569;SDS011;60594;50.204;8.844;2024-01-30T13:41:42;11.57;;;7.50;;
72569;SDS011;60594;50.204;8.844;2024-01-30T13:44:27;16.25;;;7.85;;
72569;SDS011;60594;50.204;8.844;2024-01-30T13:47:12;14.30;;;7.53;;
72569;SDS011;60594;50.204;8.844;2024-01-30T13:49:57;11.85;;;7.00;;
72569;SDS011;60594;50.204;8.844;2024-01-30T13:52:43;11.95;;;6.88;;
72569;SDS011;60594;50.204;8.844;2024-01-30T13:55:30;12.63;;;6.72;;
72569;SDS011;60594;50.204;8.844;2024-01-30T13:58:15;13.20;;;6.70;;
72569;SDS011;60594;50.204;8.844;2024-01-30T14:01:00;11.43;;;6.38;;
72569;SDS011;60594;50.204;8.844;2024-01-30T14:03:45;14.75;;;8.18;;
72569;SDS011;60594;50.204;8.844;2024-01-30T14:06:30;13.10;;;7.38;;
72569;SDS011;60594;50.204;8.844;2024-01-30T14:09:16;14.88;;;7.53;;
72569;SDS011;60594;50.204;8.844;2024-01-30T14:12:01;14.73;;;7.47;;
72569;SDS011;60594;50.204;8.844;2024-01-30T14:14:45;14.07;;;8.10;;
72569;SDS011;60594;50.204;8.844;2024-01-30T14:17:30;12.57;;;7.32;;
72569;SDS011;60594;50.204;8.844;2024-01-30T14:20:15;12.57;;;7.28;;
72569;SDS011;60594;50.204;8.844;2024-01-30T14:23:03;12.85;;;7.38;;
72569;SDS011;60594;50.204;8.844;2024-01-30T14:25:49;13.93;;;7.82;;
72569;SDS011;60594;50.204;8.844;2024-01-30T14:28:35;12.82;;;7.25;;
72569;SDS011;60594;50.204;8.844;2024-01-30T14:31:20;13.00;;;7.32;;
72569;SDS011;60594;50.204;8.844;2024-01-30T14:34:06;11.25;;;7.07;;
72569;SDS011;60594;50.204;8.844;2024-01-30T14:36:51;15.00;;;7.75;;
72569;SDS011;60594;50.204;8.844;2024-01-30T14:39:36;14.57;;;7.93;;
72569;SDS011;60594;50.204;8.844;2024-01-30T14:42:22;15.93;;;7.78;;
72569;SDS011;60594;50.204;8.844;2024-01-30T14:45:06;13.35;;;7.70;;
72569;SDS011;60594;50.204;8.844;2024-01-30T14:47:52;15.93;;;8.30;;
72569;SDS011;60594;50.204;8.844;2024-01-30T14:50:37;16.30;;;7.60;;
72569;SDS011;60594;50.204;8.844;2024-01-30T14:53:23;12.65;;;7.47;;
72569;SDS011;60594;50.204;8.844;2024-01-30T14:56:07;16.02;;;8.02;;
72569;SDS011;60594;50.204;8.844;2024-01-30T14:58:53;14.18;;;7.68;;
72569;SDS011;60594;50.204;8.844;2024-01-30T15:01:38;11.32;;;7.72;;
72569;SDS011;60594;50.204;8.844;2024-01-30T15:04:23;13.38;;;8.20;;
72569;SDS011;60594;50.204;8.844;2024-01-30T15:07:08;14.77;;;8.25;;
72569;SDS011;60594;50.204;8.844;2024-01-30T15:09:53;11.32;;;7.53;;
72569;SDS011;60594;50.204;8.844;2024-01-30T15:12:38;14.75;;;8.32;;
72569;SDS011;60594;50.204;8.844;2024-01-30T15:15:23;14.60;;;9.15;;
72569;SDS011;60594;50.204;8.844;2024-01-30T15:18:08;14.52;;;8.10;;
72569;SDS011;60594;50.204;8.844;2024-01-30T15:20:55;14.60;;;8.30;;
72569;SDS011;60594;50.204;8.844;2024-01-30T15:23:41;15.13;;;9.23;;
72569;SDS011;60594;50.204;8.844;2024-01-30T15:26:27;16.48;;;8.30;;
72569;SDS011;60594;50.204;8.844;2024-01-30T15:29:12;13.52;;;8.60;;
72569;SDS011;60594;50.204;8.844;2024-01-30T15:31:57;14.80;;;8.73;;
72569;SDS011;60594;50.204;8.844;2024-01-30T15:34:42;16.35;;;8.75;;
72569;SDS011;60594;50.204;8.844;2024-01-30T15:37:27;16.30;;;9.00;;
72569;SDS011;60594;50.204;8.844;2024-01-30T15:40:12;16.00;;;8.57;;
72569;SDS011;60594;50.204;8.844;2024-01-30T15:42:57;13.77;;;8.10;;
72569;SDS011;60594;50.204;8.844;2024-01-30T15:45:42;15.25;;;8.88;;
72569;SDS011;60594;50.204;8.844;2024-01-30T15:48:28;13.98;;;8.10;;
72569;SDS011;60594;50.204;8.844;2024-01-30T15:51:13;14.23;;;8.90;;
72569;SDS011;60594;50.204;8.844;2024-01-30T15:53:58;13.93;;;7.82;;
72569;SDS011;60594;50.204;8.844;2024-01-30T15:56:43;12.85;;;8.48;;
72569;SDS011;60594;50.204;8.844;2024-01-30T15:59:28;12.98;;;7.60;;
72569;SDS011;60594;50.204;8.844;2024-01-30T16:02:13;14.35;;;8.25;;
72569;SDS011;60594;50.204;8.844;2024-01-30T16:04:58;12.77;;;7.90;;
72569;SDS011;60594;50.204;8.844;2024-01-30T16:07:44;15.95;;;8.70;;
72569;SDS011;60594;50.204;8.844;2024-01-30T16:10:29;19.77;;;8.38;;
72569;SDS011;60594;50.204;8.844;2024-01-30T16:13:14;14.18;;;8.25;;
72569;SDS011;60594;50.204;8.844;2024-01-30T16:15:59;13.55;;;8.95;;
72569;SDS011;60594;50.204;8.844;2024-01-30T16:18:45;14.82;;;8.95;;
72569;SDS011;60594;50.204;8.844;2024-01-30T16:21:30;15.38;;;9.55;;
72569;SDS011;60594;50.204;8.844;2024-01-30T16:24:16;16.75;;;9.00;;
72569;SDS011;60594;50.204;8.844;2024-01-30T16:27:20;14.23;;;8.80;;
72569;SDS011;60594;50.204;8.844;2024-01-30T16:30:25;13.50;;;8.68;;